createdAt,value
2022-09-23T00:05:08.038Z,71.25
2022-09-23T00:10:33.613Z,71.97
2022-09-23T00:15:55.329Z,72.73
2022-09-23T00:21:18.860Z,73.28
2022-09-23T00:26:40.550Z,73.89
2022-09-23T00:32:03.155Z,74.37
2022-09-23T00:37:25.131Z,72.72
2022-09-23T00:42:49.473Z,72.82
2022-09-23T00:48:16.997Z,73.87
2022-09-23T00:53:39.673Z,73.27
2022-09-23T00:59:02.454Z,72.40
2022-09-23T01:04:26.763Z,73.52
2022-09-23T01:09:49.175Z,73.31
2022-09-23T01:15:19.532Z,72.67
2022-09-23T01:20:56.186Z,72.57
2022-09-23T01:26:17.955Z,72.85
2022-09-23T01:31:58.789Z,73.67
2022-09-23T01:37:35.312Z,73.50
2022-09-23T01:43:11.369Z,72.77
2022-09-23T01:48:40.202Z,72.88
2022-09-23T01:54:07.853Z,73.13
2022-09-23T01:59:43.127Z,73.88
2022-09-23T02:05:18.339Z,73.74
2022-09-23T02:10:47.259Z,74.59
2022-09-23T02:16:15.001Z,74.82
2022-09-23T02:21:47.057Z,74.60
2022-09-23T02:27:32.014Z,75.28
2022-09-23T02:33:22.952Z,76.49
2022-09-23T02:38:51.224Z,76.04
2022-09-23T02:44:16.608Z,76.25
2022-09-23T02:49:38.415Z,76.17
2022-09-23T02:55:00.855Z,77.54
2022-09-23T03:00:23.809Z,75.97
2022-09-23T03:05:56.388Z,75.67
2022-09-23T03:11:18.709Z,74.51
2022-09-23T03:17:03.585Z,75.92
2022-09-23T03:22:32.269Z,74.58
2022-09-23T03:27:57.901Z,75.63
2022-09-23T03:33:28.504Z,74.51
2022-09-23T03:38:54.654Z,75.26
2022-09-23T03:44:18.159Z,75.19
2022-09-23T03:49:42.492Z,76.17
2022-09-23T03:55:05.012Z,76.61
2022-09-23T04:00:27.698Z,77.00
2022-09-23T04:05:49.412Z,77.40
2022-09-23T04:11:11.252Z,77.61
2022-09-23T04:16:33.062Z,77.83
2022-09-23T04:21:54.819Z,76.81
2022-09-23T04:27:16.809Z,76.94
2022-09-23T04:32:38.584Z,76.44
2022-09-23T04:38:00.278Z,77.00
2022-09-23T04:43:23.321Z,78.16
2022-09-23T04:48:45.246Z,78.53
2022-09-23T04:54:07.029Z,78.66
2022-09-23T04:59:29.281Z,79.20
2022-09-23T05:04:51.038Z,78.10
2022-09-23T05:10:12.746Z,78.29
2022-09-23T05:15:34.553Z,77.79
2022-09-23T05:20:56.411Z,77.42
2022-09-23T05:26:18.155Z,77.28
2022-09-23T05:31:39.931Z,77.15
2022-09-23T05:37:01.783Z,77.36
2022-09-23T05:42:24.072Z,77.78
2022-09-23T05:47:45.795Z,77.94
2022-09-23T05:53:07.644Z,77.46
2022-09-23T05:58:30.038Z,78.48
2022-09-23T06:03:53.339Z,78.87
2022-09-23T06:09:15.263Z,79.60
2022-09-23T06:14:37.044Z,78.91
2022-09-23T06:19:58.966Z,78.71
2022-09-23T06:25:23.014Z,79.38
2022-09-23T06:30:44.799Z,79.46
2022-09-23T06:36:08.081Z,78.35
2022-09-23T06:41:29.962Z,76.94
2022-09-23T06:46:51.861Z,78.81
2022-09-23T06:52:13.792Z,77.83
2022-09-23T06:57:35.921Z,78.70
2022-09-23T07:02:57.735Z,77.15
2022-09-23T07:08:19.593Z,75.25
2022-09-23T07:13:42.691Z,73.85
2022-09-23T07:19:04.519Z,73.91
2022-09-23T07:24:26.217Z,72.64
2022-09-23T07:29:49.339Z,72.82
2022-09-23T07:35:11.693Z,71.57
2022-09-23T07:40:34.455Z,71.42
2022-09-23T07:45:56.266Z,71.38
2022-09-23T07:51:21.221Z,69.88
2022-09-23T07:56:43.384Z,69.06
2022-09-23T08:02:05.124Z,67.85
2022-09-23T08:07:26.835Z,68.35
2022-09-23T08:12:48.901Z,67.99
2022-09-23T08:18:10.863Z,67.08
2022-09-23T08:23:33.896Z,66.96
2022-09-23T08:28:56.436Z,67.81
2022-09-23T08:34:20.052Z,69.26
2022-09-23T08:39:41.928Z,67.97
2022-09-23T08:45:07.582Z,66.87
2022-09-23T08:50:37.346Z,67.29
2022-09-23T08:56:03.161Z,67.47
2022-09-23T09:01:44.591Z,67.18
2022-09-23T09:07:35.743Z,66.29
2022-09-23T09:13:07.446Z,65.58
2022-09-23T09:18:31.996Z,65.26
2022-09-23T09:24:00.093Z,65.55
2022-09-23T09:29:35.485Z,65.02
2022-09-23T09:35:03.816Z,64.84
2022-09-23T09:40:25.607Z,64.27
2022-09-23T09:46:10.607Z,64.38
2022-09-23T09:51:32.525Z,63.99
2022-09-23T09:56:54.713Z,64.01
2022-09-23T10:02:26.734Z,64.08
2022-09-23T10:07:48.525Z,63.68
2022-09-23T10:13:19.508Z,63.22
2022-09-23T10:18:47.422Z,62.97
2022-09-23T10:24:22.468Z,62.31
2022-09-23T10:29:50.981Z,62.13
2022-09-23T10:35:22.526Z,61.90
2022-09-23T10:41:03.106Z,62.27
2022-09-23T10:46:41.435Z,61.61
2022-09-23T10:53:08.109Z,61.79
2022-09-23T10:58:42.877Z,60.80
2022-09-23T11:04:52.547Z,60.31
2022-09-23T11:10:44.896Z,59.72
2022-09-23T11:16:16.638Z,59.02
2022-09-23T11:22:05.660Z,58.77
2022-09-23T11:27:35.079Z,58.46
2022-09-23T11:33:17.769Z,58.25
2022-09-23T11:38:44.780Z,57.21
2022-09-23T11:44:10.539Z,54.74
2022-09-23T11:49:40.108Z,54.64
2022-09-23T11:55:22.716Z,54.36
2022-09-23T12:00:59.004Z,55.33
2022-09-23T12:06:39.933Z,54.78
2022-09-23T12:12:14.096Z,54.62
2022-09-23T12:18:03.930Z,55.16
2022-09-23T12:23:37.855Z,54.95
2022-09-23T12:29:05.545Z,55.06
2022-09-23T12:34:38.957Z,53.69
2022-09-23T12:40:07.378Z,53.65
2022-09-23T12:45:37.277Z,53.33
2022-09-23T12:51:06.628Z,53.05
2022-09-23T12:56:31.150Z,52.95
2022-09-23T13:01:54.208Z,53.18
2022-09-23T13:07:27.482Z,53.24
2022-09-23T13:12:49.943Z,53.74
2022-09-23T13:18:20.869Z,52.77
2022-09-23T13:24:19.496Z,52.96
2022-09-23T13:30:06.047Z,53.04
2022-09-23T13:35:35.978Z,53.43
2022-09-23T13:41:25.165Z,53.52
2022-09-23T13:46:58.143Z,52.65
2022-09-23T13:52:27.881Z,53.60
2022-09-23T13:57:57.369Z,52.43
2022-09-23T14:03:36.110Z,52.57
2022-09-23T14:09:01.238Z,53.18
2022-09-23T14:14:23.777Z,52.23
2022-09-23T14:19:46.638Z,52.39
2022-09-23T14:25:18.311Z,52.85
2022-09-23T14:30:40.275Z,52.89
2022-09-23T14:36:08.949Z,53.53
2022-09-23T14:41:37.075Z,52.79
2022-09-23T14:46:59.682Z,52.91
2022-09-23T14:52:21.444Z,53.24
2022-09-23T14:57:44.744Z,53.07
2022-09-23T15:03:16.392Z,53.72
2022-09-23T15:08:38.564Z,53.31
2022-09-23T15:14:19.701Z,54.46
2022-09-23T15:19:43.379Z,53.79
2022-09-23T15:25:15.806Z,54.46
2022-09-23T15:30:39.001Z,54.91
2022-09-23T15:36:00.953Z,54.67
2022-09-23T15:41:24.147Z,55.58
2022-09-23T15:46:48.164Z,56.55
2022-09-23T15:52:10.563Z,56.85
2022-09-23T15:57:32.302Z,56.49
2022-09-23T16:02:54.319Z,57.02
2022-09-23T16:08:16.303Z,57.59
2022-09-23T16:13:38.024Z,57.88
2022-09-23T16:18:59.879Z,58.28
2022-09-23T16:24:27.353Z,58.48
2022-09-23T16:29:49.835Z,57.90
2022-09-23T16:35:11.609Z,58.07
2022-09-23T16:40:33.943Z,58.69
2022-09-23T16:45:55.837Z,58.72
2022-09-23T16:51:28.169Z,58.44
2022-09-23T16:56:50.433Z,58.42
2022-09-23T17:02:44.461Z,58.96
2022-09-23T17:08:07.758Z,60.49
2022-09-23T17:13:30.025Z,61.26
2022-09-23T17:19:02.522Z,62.36
2022-09-23T17:24:24.295Z,63.04
2022-09-23T17:29:46.269Z,63.59
2022-09-23T17:35:11.739Z,64.48
2022-09-23T17:40:35.818Z,64.44
2022-09-23T17:46:08.631Z,64.73
2022-09-23T17:51:30.939Z,65.80
2022-09-23T17:56:52.686Z,65.87
2022-09-23T18:02:15.837Z,66.37
2022-09-23T18:07:37.751Z,67.00
2022-09-23T18:12:59.462Z,67.13
2022-09-23T18:18:21.147Z,67.04
2022-09-23T18:23:43.002Z,68.41
2022-09-23T18:29:05.784Z,68.85
2022-09-23T18:34:28.556Z,69.36
2022-09-23T18:39:50.477Z,70.18
2022-09-23T18:45:12.503Z,70.11
2022-09-23T18:50:40.331Z,70.40
2022-09-23T18:56:10.496Z,70.75
2022-09-23T19:01:32.808Z,71.46
2022-09-23T19:06:56.530Z,71.31
2022-09-23T19:12:18.465Z,71.58
2022-09-23T19:17:40.363Z,71.91
2022-09-23T19:23:02.111Z,71.87
2022-09-23T19:28:25.194Z,73.07
2022-09-23T19:33:58.405Z,73.54
2022-09-23T19:39:22.644Z,73.73
2022-09-23T19:44:44.394Z,74.58
2022-09-23T19:50:07.298Z,74.35
2022-09-23T19:55:29.413Z,74.26
2022-09-23T20:00:51.256Z,74.03
2022-09-23T20:06:13.550Z,73.76
2022-09-23T20:11:35.890Z,73.39
2022-09-23T20:16:58.269Z,73.78
2022-09-23T20:22:29.673Z,74.10
2022-09-23T20:27:54.736Z,73.17
2022-09-23T20:33:16.491Z,73.54
2022-09-23T20:38:38.626Z,73.95
2022-09-23T20:44:00.578Z,73.84
2022-09-23T20:49:22.618Z,74.06
2022-09-23T20:54:44.416Z,74.41
2022-09-23T21:00:07.835Z,74.55
2022-09-23T21:05:30.162Z,74.44
2022-09-23T21:10:58.861Z,74.17
2022-09-23T21:16:25.645Z,73.17
2022-09-23T21:21:47.519Z,74.10
2022-09-23T21:27:09.219Z,73.65
2022-09-23T21:32:31.223Z,74.31
2022-09-23T21:37:53.009Z,74.99
2022-09-23T21:43:16.484Z,76.31
2022-09-23T21:48:43.615Z,77.43
2022-09-23T21:54:07.173Z,78.93
2022-09-23T21:59:28.987Z,78.41
2022-09-23T22:04:50.687Z,77.67
2022-09-23T22:10:12.548Z,78.24
2022-09-23T22:15:37.462Z,78.53
2022-09-23T22:20:59.288Z,77.74
2022-09-23T22:26:21.196Z,77.36
2022-09-23T22:32:01.625Z,77.41
2022-09-23T22:37:30.308Z,77.82
2022-09-23T22:42:52.579Z,77.72
2022-09-23T22:48:19.155Z,78.55
2022-09-23T22:53:40.884Z,78.59
2022-09-23T22:59:05.491Z,77.64
2022-09-23T23:04:27.551Z,77.51
2022-09-23T23:09:50.353Z,77.80
2022-09-23T23:15:12.624Z,78.51
2022-09-23T23:20:34.546Z,78.25
2022-09-23T23:25:56.267Z,77.96
2022-09-23T23:31:20.938Z,78.17
2022-09-23T23:36:43.647Z,79.07
2022-09-23T23:42:05.649Z,79.22
2022-09-23T23:47:27.458Z,79.50
2022-09-23T23:52:49.157Z,80.58
2022-09-23T23:58:10.933Z,80.28
